Time;durP1;ratioP1;P1;durP2;ratioP2;P2;SDS_P1;SDS_P2;PMS_P1;PMS_P2;Temp;Humidity;BMP_temperature;BMP_pressure;BME280_temperature;BME280_humidity;BME280_pressure;Samples;Min_cycle;Max_cycle;Signal;HPM_P1;HPM_P2
2023/10/11 00:00:25;;;;;;;25.92;12.93;;;16.40;99.90;;;;;;5049269;28;20558;-73
2023/10/11 00:02:51;;;;;;;26.38;13.18;;;16.50;99.90;;;;;;5049813;28;20522;-74
2023/10/11 00:05:17;;;;;;;30.27;12.80;;;16.50;99.90;;;;;;5049465;28;20071;-75
2023/10/11 00:07:46;;;;;;;34.00;13.52;;;16.50;99.90;;;;;;5049387;28;20041;-75
2023/10/11 00:10:12;;;;;;;28.80;12.75;;;16.50;99.90;;;;;;5032557;28;20120;-75
2023/10/11 00:12:41;;;;;;;36.08;14.30;;;16.50;99.90;;;;;;5048657;28;20535;-74
2023/10/11 00:15:08;;;;;;;29.80;13.82;;;16.50;99.90;;;;;;5049361;28;20049;-74
2023/10/11 00:17:36;;;;;;;32.08;13.38;;;16.50;99.90;;;;;;5049362;28;20124;-75
2023/10/11 00:20:15;;;;;;;29.08;13.32;;;16.50;99.90;;;;;;5048908;28;20591;-75
2023/10/11 00:22:41;;;;;;;29.95;13.70;;;16.50;99.90;;;;;;5049480;28;20401;-74
2023/10/11 00:25:07;;;;;;;27.38;13.20;;;16.50;99.90;;;;;;5049537;28;20044;-75
2023/10/11 00:27:33;;;;;;;29.67;13.52;;;16.50;99.90;;;;;;5049591;28;20471;-75
2023/10/11 00:29:58;;;;;;;32.13;14.68;;;16.50;99.90;;;;;;5049344;28;20045;-74
2023/10/11 00:32:24;;;;;;;34.15;13.93;;;16.50;99.90;;;;;;5050446;28;20080;-75
2023/10/11 00:34:50;;;;;;;28.27;13.77;;;16.50;99.90;;;;;;5052893;28;20413;-75
2023/10/11 00:37:16;;;;;;;30.15;14.07;;;16.50;99.90;;;;;;5036415;28;20397;-74
2023/10/11 00:39:43;;;;;;;32.53;13.48;;;16.50;99.90;;;;;;5052630;28;20059;-74
2023/10/11 00:42:10;;;;;;;32.15;14.57;;;16.50;99.90;;;;;;5052883;28;20084;-75
2023/10/11 00:44:36;;;;;;;31.90;14.02;;;16.50;99.90;;;;;;5052738;28;20117;-75
2023/10/11 00:47:04;;;;;;;27.15;13.73;;;16.50;99.90;;;;;;5052693;28;20123;-75
2023/10/11 00:49:36;;;;;;;34.15;14.88;;;16.50;99.90;;;;;;5052653;28;20059;-74
2023/10/11 00:52:06;;;;;;;25.35;13.90;;;16.50;99.90;;;;;;5052704;28;20124;-74
2023/10/11 00:54:34;;;;;;;34.78;15.25;;;16.50;99.90;;;;;;5052724;28;20569;-75
2023/10/11 00:57:00;;;;;;;31.77;13.57;;;16.50;99.90;;;;;;5052636;28;20037;-74
2023/10/11 00:59:28;;;;;;;26.52;13.43;;;16.50;99.90;;;;;;5035440;28;20033;-74
2023/10/11 01:01:55;;;;;;;28.95;14.88;;;16.50;99.90;;;;;;5052727;28;20403;-75
2023/10/11 01:04:22;;;;;;;32.35;13.57;;;16.50;99.90;;;;;;5051862;28;20095;-75
2023/10/11 01:06:48;;;;;;;31.58;14.27;;;16.50;99.90;;;;;;5051389;28;20045;-75
2023/10/11 01:09:17;;;;;;;36.55;14.27;;;16.50;99.90;;;;;;5052503;28;20399;-75
2023/10/11 01:11:43;;;;;;;30.85;14.23;;;16.50;99.90;;;;;;5052461;28;20120;-75
2023/10/11 01:14:09;;;;;;;30.33;13.75;;;16.50;99.90;;;;;;5052148;28;20443;-75
2023/10/11 01:16:35;;;;;;;34.63;14.48;;;16.40;99.90;;;;;;5052208;28;20044;-74
2023/10/11 01:19:01;;;;;;;39.17;14.98;;;16.40;99.90;;;;;;5051868;28;20561;-75
2023/10/11 01:21:32;;;;;;;31.95;14.65;;;16.40;99.90;;;;;;5035570;28;20045;-75
2023/10/11 01:23:58;;;;;;;36.35;15.38;;;16.50;99.90;;;;;;5052117;28;20056;-75
2023/10/11 01:26:23;;;;;;;37.30;14.50;;;16.40;99.90;;;;;;5052079;28;20041;-75
2023/10/11 01:28:49;;;;;;;33.20;14.70;;;16.40;99.90;;;;;;5051587;28;20037;-75
2023/10/11 01:31:16;;;;;;;34.70;14.20;;;16.40;99.90;;;;;;5035708;28;20407;-75
2023/10/11 01:33:44;;;;;;;36.40;14.52;;;16.40;99.90;;;;;;5052114;28;20521;-75
2023/10/11 01:36:11;;;;;;;36.15;15.32;;;16.40;99.90;;;;;;5051973;28;20040;-74
2023/10/11 01:38:49;;;;;;;38.08;14.15;;;16.40;99.90;;;;;;5034913;28;20040;-75
2023/10/11 01:41:22;;;;;;;34.58;14.80;;;16.40;99.90;;;;;;5051622;28;20043;-75
2023/10/11 01:43:49;;;;;;;37.58;14.50;;;16.40;99.90;;;;;;5051846;28;20112;-76
2023/10/11 01:46:35;;;;;;;33.40;13.85;;;16.40;99.90;;;;;;5051642;28;20068;-73
2023/10/11 01:49:01;;;;;;;31.58;13.88;;;16.40;99.90;;;;;;5051308;28;20485;-75
2023/10/11 01:51:27;;;;;;;34.20;13.25;;;16.40;99.90;;;;;;5051176;28;20507;-75
2023/10/11 01:54:04;;;;;;;37.38;14.23;;;16.40;99.90;;;;;;5050683;28;20126;-75
2023/10/11 01:56:30;;;;;;;28.67;12.82;;;16.40;99.90;;;;;;5050158;28;20167;-74
2023/10/11 01:58:56;;;;;;;32.97;13.65;;;16.40;99.90;;;;;;5051108;28;20095;-74
2023/10/11 02:01:25;;;;;;;30.92;13.55;;;16.40;99.90;;;;;;5051697;28;20045;-74
2023/10/11 02:03:53;;;;;;;30.25;13.88;;;16.40;99.90;;;;;;5051168;28;20041;-75
2023/10/11 02:06:19;;;;;;;33.47;13.95;;;16.30;99.90;;;;;;5051371;28;20404;-75
2023/10/11 02:08:45;;;;;;;36.40;14.38;;;16.30;99.90;;;;;;5050938;28;20043;-76
2023/10/11 02:11:11;;;;;;;31.98;13.73;;;16.30;99.90;;;;;;5051248;28;20041;-75
2023/10/11 02:13:39;;;;;;;29.08;13.35;;;16.30;99.90;;;;;;5051377;28;20412;-75
2023/10/11 02:16:09;;;;;;;29.95;14.45;;;16.30;99.90;;;;;;5051081;28;20080;-75
2023/10/11 02:18:35;;;;;;;28.38;14.23;;;16.30;99.90;;;;;;5050857;28;20080;-75
2023/10/11 02:21:06;;;;;;;33.60;14.63;;;16.20;99.90;;;;;;5050893;28;20079;-74
2023/10/11 02:23:39;;;;;;;28.20;14.15;;;16.20;99.90;;;;;;5051088;28;20067;-75
2023/10/11 02:26:14;;;;;;;29.63;14.57;;;16.20;99.90;;;;;;5034332;28;20037;-75
2023/10/11 02:28:40;;;;;;;33.70;14.90;;;16.20;99.90;;;;;;5050805;28;20052;-75
2023/10/11 02:31:06;;;;;;;33.42;15.77;;;16.20;99.90;;;;;;5051099;28;20404;-75
2023/10/11 02:33:33;;;;;;;33.70;15.18;;;16.20;99.90;;;;;;5050575;28;20047;-74
2023/10/11 02:36:08;;;;;;;34.88;14.60;;;16.20;99.90;;;;;;5050721;28;20043;-75
2023/10/11 02:38:50;;;;;;;30.63;14.43;;;16.10;99.90;;;;;;5050522;28;20053;-74
2023/10/11 02:41:25;;;;;;;33.53;15.18;;;16.10;99.90;;;;;;5050559;28;20574;-73
2023/10/11 02:43:57;;;;;;;35.53;14.50;;;16.10;99.90;;;;;;5050152;28;20132;-75
2023/10/11 02:46:23;;;;;;;34.28;15.73;;;16.10;99.90;;;;;;5050432;28;20112;-75
2023/10/11 02:49:18;;;;;;;36.30;14.88;;;16.10;99.90;;;;;;5050267;28;20032;-74
2023/10/11 02:51:55;;;;;;;34.92;15.65;;;16.10;99.90;;;;;;5050383;28;20056;-75
2023/10/11 02:54:24;;;;;;;35.45;14.82;;;16.10;99.90;;;;;;5050115;28;20061;-75
2023/10/11 02:56:52;;;;;;;38.25;15.48;;;16.10;99.90;;;;;;5050240;28;20037;-76
2023/10/11 02:59:19;;;;;;;30.77;14.30;;;16.10;99.90;;;;;;5050016;28;20500;-76
2023/10/11 03:02:03;;;;;;;31.65;14.90;;;16.10;99.90;;;;;;5050279;28;20044;-74
2023/10/11 03:04:40;;;;;;;29.08;14.05;;;16.10;99.90;;;;;;5032524;28;20047;-75
2023/10/11 03:07:10;;;;;;;29.75;13.95;;;16.10;99.90;;;;;;5033770;28;20090;-74
2023/10/11 03:09:38;;;;;;;40.72;14.68;;;16.00;99.90;;;;;;5050041;28;20087;-74
2023/10/11 03:12:18;;;;;;;38.05;14.18;;;16.10;99.90;;;;;;5050512;28;20408;-75
2023/10/11 03:14:45;;;;;;;36.95;14.25;;;16.10;99.90;;;;;;5050465;28;20059;-74
2023/10/11 03:17:14;;;;;;;37.55;15.57;;;16.10;99.90;;;;;;5049917;28;20051;-75
2023/10/11 03:19:42;;;;;;;35.90;13.80;;;16.10;99.90;;;;;;5050107;28;20041;-75
2023/10/11 03:22:09;;;;;;;28.38;13.82;;;16.10;99.90;;;;;;5050178;28;20097;-75
2023/10/11 03:24:39;;;;;;;34.80;14.70;;;16.10;99.90;;;;;;5050127;28;20131;-74
2023/10/11 03:27:08;;;;;;;27.83;13.35;;;16.10;99.90;;;;;;5049865;28;20041;-74
2023/10/11 03:29:35;;;;;;;31.80;13.80;;;16.10;99.90;;;;;;5049819;28;20081;-75
2023/10/11 03:32:02;;;;;;;37.42;13.75;;;16.10;99.90;;;;;;5048181;28;20094;-74
2023/10/11 03:34:29;;;;;;;35.15;15.02;;;16.10;99.90;;;;;;5049328;28;20036;-75
2023/10/11 03:36:59;;;;;;;34.13;13.45;;;16.10;99.90;;;;;;5033492;28;20029;-75
2023/10/11 03:44:45;;;;;;;33.80;13.55;;;16.10;99.90;;;;;;5049673;28;20120;-74
2023/10/11 03:47:15;;;;;;;29.98;13.05;;;16.10;99.90;;;;;;5049626;28;20116;-75
2023/10/11 03:52:16;;;;;;;32.63;13.07;;;16.10;99.90;;;;;;5049964;28;20048;-75
2023/10/11 03:54:45;;;;;;;31.00;12.73;;;16.10;99.90;;;;;;5049491;28;20086;-74
2023/10/11 03:57:10;;;;;;;33.08;13.80;;;16.10;99.90;;;;;;5049851;28;20037;-75
2023/10/11 03:59:39;;;;;;;33.35;12.88;;;16.10;99.90;;;;;;5049246;28;20492;-74
2023/10/11 04:02:10;;;;;;;37.10;13.60;;;16.10;99.90;;;;;;5049475;28;20082;-75
2023/10/11 04:04:42;;;;;;;28.02;12.70;;;16.00;99.90;;;;;;5049587;28;20111;-75
2023/10/11 04:07:12;;;;;;;34.67;12.27;;;16.10;99.90;;;;;;5050617;28;20378;-75
2023/10/11 04:09:44;;;;;;;30.65;13.35;;;16.10;99.90;;;;;;5053420;28;20497;-75
2023/10/11 04:12:10;;;;;;;30.73;12.60;;;16.10;99.90;;;;;;5053585;28;20139;-75
2023/10/11 04:14:43;;;;;;;29.33;12.80;;;16.10;99.90;;;;;;5053303;28;20127;-74
2023/10/11 04:19:55;;;;;;;28.73;13.07;;;16.10;99.90;;;;;;5053369;28;20092;-75
2023/10/11 04:22:31;;;;;;;29.30;12.63;;;16.00;99.90;;;;;;5053214;28;20092;-74
2023/10/11 04:24:57;;;;;;;28.02;11.80;;;16.10;99.90;;;;;;5036988;28;20033;-74
2023/10/11 04:29:50;;;;;;;24.60;12.05;;;16.10;99.90;;;;;;5052846;28;20041;-74
2023/10/11 04:32:40;;;;;;;29.10;11.55;;;16.00;99.90;;;;;;5052991;28;20044;-75
2023/10/11 04:35:22;;;;;;;31.25;12.25;;;16.00;99.90;;;;;;5053190;28;20045;-74
2023/10/11 04:37:54;;;;;;;32.35;12.40;;;16.00;99.90;;;;;;5053184;28;20056;-74
2023/10/11 04:40:33;;;;;;;24.98;11.73;;;16.00;99.90;;;;;;5052938;28;20525;-75
2023/10/11 04:43:08;;;;;;;24.27;12.07;;;16.00;99.90;;;;;;5053125;28;20446;-75
2023/10/11 04:45:44;;;;;;;26.92;10.80;;;16.00;99.90;;;;;;5053142;28;20044;-75
2023/10/11 04:48:29;;;;;;;27.92;11.48;;;16.00;99.90;;;;;;5052959;28;20037;-74
2023/10/11 04:51:21;;;;;;;28.55;12.50;;;16.00;99.90;;;;;;5052943;28;20041;-74
2023/10/11 04:59:11;;;;;;;31.35;11.90;;;15.90;99.90;;;;;;5051620;28;20077;-75
2023/10/11 05:04:14;;;;;;;26.17;11.80;;;15.90;99.90;;;;;;5054204;28;20049;-74
2023/10/11 05:06:40;;;;;;;31.27;11.45;;;15.90;99.90;;;;;;5052390;28;20099;-75
2023/10/11 05:09:40;;;;;;;33.42;12.32;;;15.90;99.90;;;;;;5052056;28;20041;-75
2023/10/11 05:12:08;;;;;;;28.90;12.13;;;15.90;99.90;;;;;;5051512;28;20144;-74
2023/10/11 05:17:31;;;;;;;29.10;12.38;;;15.90;99.90;;;;;;5052467;28;20366;-75
2023/10/11 05:28:07;;;;;;;29.92;12.68;;;15.90;99.90;;;;;;5051151;28;20080;-74
2023/10/11 05:30:37;;;;;;;26.63;12.15;;;15.90;99.90;;;;;;5051675;28;20040;-74
2023/10/11 05:52:14;;;;;;;27.75;12.52;;;15.90;99.90;;;;;;5050390;28;20111;-75
2023/10/11 05:54:40;;;;;;;29.63;12.63;;;16.00;99.90;;;;;;5051471;28;20040;-74
2023/10/11 05:57:06;;;;;;;30.88;12.25;;;15.90;99.90;;;;;;5051696;28;20464;-73
2023/10/11 05:59:35;;;;;;;37.40;12.93;;;15.90;99.90;;;;;;5051252;28;20040;-74
2023/10/11 06:02:02;;;;;;;32.63;13.02;;;15.90;99.90;;;;;;5051614;28;20047;-74
2023/10/11 06:04:27;;;;;;;36.45;13.40;;;15.90;99.90;;;;;;5050449;28;20045;-74
2023/10/11 06:06:57;;;;;;;35.97;13.70;;;15.90;99.90;;;;;;5049729;28;20048;-75
2023/10/11 06:09:27;;;;;;;30.52;12.38;;;16.00;99.90;;;;;;5051580;28;20504;-75
2023/10/11 06:11:52;;;;;;;32.25;13.50;;;16.00;99.90;;;;;;5051451;28;20471;-74
2023/10/11 06:14:19;;;;;;;29.02;13.00;;;16.00;99.90;;;;;;5051207;28;20128;-73
2023/10/11 06:16:49;;;;;;;31.98;13.77;;;16.00;99.90;;;;;;5051194;28;20037;-75
2023/10/11 06:19:18;;;;;;;31.67;12.63;;;16.10;99.90;;;;;;5051162;28;20048;-75
2023/10/11 06:21:58;;;;;;;33.75;12.98;;;16.10;99.90;;;;;;5051195;28;20033;-73
2023/10/11 06:24:34;;;;;;;31.48;13.00;;;16.10;99.90;;;;;;5049945;28;20098;-74
2023/10/11 06:29:39;;;;;;;30.63;13.60;;;16.20;99.90;;;;;;5048523;28;20045;-74
2023/10/11 06:32:11;;;;;;;29.77;13.00;;;16.20;99.90;;;;;;5050924;28;20052;-75
2023/10/11 06:34:37;;;;;;;29.65;12.90;;;16.30;99.90;;;;;;5049662;28;20052;-73
2023/10/11 06:37:03;;;;;;;31.98;13.38;;;16.30;99.90;;;;;;5050547;28;20049;-73
2023/10/11 06:45:16;;;;;;;28.35;12.63;;;16.40;99.90;;;;;;5050498;28;20129;-75
2023/10/11 06:47:42;;;;;;;35.03;12.52;;;16.40;99.90;;;;;;5051591;28;20075;-75
2023/10/11 06:50:11;;;;;;;30.85;12.90;;;16.40;99.90;;;;;;5050298;28;20041;-74
2023/10/11 06:52:46;;;;;;;30.63;12.95;;;16.40;99.90;;;;;;5050542;28;20045;-74
2023/10/11 06:58:05;;;;;;;33.80;12.43;;;16.50;99.90;;;;;;5050419;28;20101;-73
2023/10/11 07:00:37;;;;;;;26.98;11.20;;;16.50;99.90;;;;;;5033689;28;20346;-74
2023/10/11 07:03:21;;;;;;;30.85;12.10;;;16.50;99.90;;;;;;5050296;28;20045;-74
2023/10/11 07:05:48;;;;;;;39.13;11.25;;;16.50;99.90;;;;;;5050653;28;20055;-74
2023/10/11 07:08:18;;;;;;;28.38;12.10;;;16.50;99.90;;;;;;5050156;28;20040;-75
2023/10/11 07:16:37;;;;;;;24.48;10.85;;;16.70;99.90;;;;;;5049988;28;20045;-74
2023/10/11 07:19:02;;;;;;;27.35;11.00;;;16.70;99.90;;;;;;5049876;28;20547;-74
2023/10/11 07:24:19;;;;;;;31.38;11.00;;;16.70;99.90;;;;;;5049822;28;20049;-75
2023/10/11 07:29:13;;;;;;;27.35;11.02;;;16.80;99.90;;;;;;5050051;28;20114;-77
2023/10/11 07:31:48;;;;;;;33.45;12.95;;;16.80;99.90;;;;;;5049842;28;20033;-75
2023/10/11 07:34:17;;;;;;;26.58;11.75;;;16.80;99.90;;;;;;5049848;28;20037;-75
2023/10/11 07:36:45;;;;;;;26.10;11.23;;;16.80;99.90;;;;;;5049828;28;20099;-75
2023/10/11 07:39:15;;;;;;;28.25;11.98;;;16.80;99.90;;;;;;5049432;28;20033;-75
2023/10/11 07:41:42;;;;;;;32.25;11.35;;;16.90;99.90;;;;;;5049653;28;20535;-75
2023/10/11 07:44:09;;;;;;;31.05;12.68;;;16.90;99.90;;;;;;5049517;28;20048;-75
2023/10/11 07:46:37;;;;;;;30.08;12.20;;;16.90;99.90;;;;;;5049710;28;20094;-74
2023/10/11 07:49:03;;;;;;;27.83;11.55;;;16.90;99.90;;;;;;5049524;28;20514;-75
2023/10/11 07:51:30;;;;;;;27.33;10.85;;;17.00;99.90;;;;;;5049691;28;20045;-74
2023/10/11 07:53:56;;;;;;;32.55;12.10;;;16.90;99.90;;;;;;5049544;28;20045;-74
2023/10/11 07:56:22;;;;;;;28.58;11.93;;;17.00;99.90;;;;;;5049493;28;20048;-74
2023/10/11 07:58:48;;;;;;;27.05;11.38;;;17.00;99.90;;;;;;5049356;28;20048;-75
2023/10/11 08:01:42;;;;;;;28.77;11.93;;;17.00;99.90;;;;;;5049648;28;20508;-75
2023/10/11 08:04:08;;;;;;;26.92;11.63;;;17.10;99.90;;;;;;5049598;28;20044;-75
2023/10/11 08:06:39;;;;;;;24.75;11.02;;;17.10;99.90;;;;;;5049515;28;20599;-73
2023/10/11 08:09:06;;;;;;;28.90;11.48;;;17.10;99.90;;;;;;5049302;28;20094;-75
2023/10/11 08:11:44;;;;;;;27.42;12.13;;;17.10;99.90;;;;;;5049093;28;20040;-75
2023/10/11 08:14:15;;;;;;;33.38;12.10;;;17.10;99.90;;;;;;5032892;28;20041;-73
2023/10/11 08:16:47;;;;;;;29.45;11.30;;;17.10;99.90;;;;;;5032732;28;20040;-73
2023/10/11 08:19:13;;;;;;;30.88;11.50;;;17.10;99.90;;;;;;5047716;28;20040;-74
2023/10/11 08:21:39;;;;;;;30.45;12.15;;;17.10;99.90;;;;;;5049307;28;20049;-73
2023/10/11 08:24:06;;;;;;;27.70;11.45;;;17.10;99.90;;;;;;5049380;28;20482;-75
2023/10/11 08:26:42;;;;;;;26.13;12.07;;;17.10;99.90;;;;;;5049416;28;20037;-74
2023/10/11 08:29:27;;;;;;;32.22;12.02;;;17.10;99.90;;;;;;5048697;28;20040;-74
2023/10/11 08:31:57;;;;;;;31.65;11.75;;;17.10;99.90;;;;;;5049551;28;20044;-74
2023/10/11 08:34:27;;;;;;;28.13;11.98;;;17.10;99.90;;;;;;5049313;28;20052;-75
2023/10/11 08:36:57;;;;;;;28.33;11.52;;;17.10;99.90;;;;;;5049287;28;20566;-73
2023/10/11 08:39:44;;;;;;;25.92;11.27;;;17.10;99.90;;;;;;5048876;28;20041;-75
2023/10/11 08:42:14;;;;;;;27.00;10.80;;;17.10;99.90;;;;;;5049598;28;20167;-74
2023/10/11 08:44:44;;;;;;;22.15;10.18;;;17.10;99.90;;;;;;5049421;28;20048;-76
2023/10/11 08:47:13;;;;;;;21.85;9.48;;;17.10;99.90;;;;;;5032408;28;20041;-74
2023/10/11 08:49:48;;;;;;;23.58;9.85;;;17.10;99.90;;;;;;5032569;28;20397;-75
2023/10/11 08:52:17;;;;;;;21.25;10.15;;;17.10;99.90;;;;;;5032825;28;20404;-74
2023/10/11 08:54:43;;;;;;;24.42;10.02;;;17.20;99.90;;;;;;5051995;28;20041;-74
2023/10/11 08:57:13;;;;;;;25.65;9.60;;;17.10;99.90;;;;;;5052765;28;20044;-73
2023/10/11 08:59:58;;;;;;;19.85;10.00;;;17.20;99.90;;;;;;5052568;28;20044;-74
2023/10/11 09:02:28;;;;;;;18.33;9.57;;;17.20;99.90;;;;;;5052513;28;20029;-74
2023/10/11 09:05:47;;;;;;;15.15;8.52;;;17.20;99.90;;;;;;5052563;28;20120;-74
2023/10/11 09:07:48;;;;;;;17.35;8.55;;;17.20;99.90;;;;;;5044991;28;20048;-73
2023/10/11 09:10:32;;;;;;;16.70;8.27;;;17.20;99.90;;;;;;5052323;28;20112;-75
2023/10/11 09:13:00;;;;;;;20.45;9.02;;;17.20;99.90;;;;;;5052482;28;20405;-74
2023/10/11 09:15:40;;;;;;;13.95;7.03;;;17.30;99.90;;;;;;5035680;28;20040;-73
2023/10/11 09:18:16;;;;;;;16.88;8.68;;;17.20;99.90;;;;;;5052625;28;20044;-75
2023/10/11 09:21:10;;;;;;;16.83;7.95;;;17.20;99.90;;;;;;5052118;28;20076;-74
2023/10/11 09:23:36;;;;;;;13.90;7.60;;;17.20;99.90;;;;;;5052150;28;20523;-74
2023/10/11 09:26:03;;;;;;;17.20;8.57;;;17.20;99.90;;;;;;5052077;28;20033;-75
2023/10/11 09:28:33;;;;;;;17.52;8.05;;;17.20;99.90;;;;;;5050549;28;20040;-74
2023/10/11 09:31:12;;;;;;;18.33;8.00;;;17.30;99.90;;;;;;5052194;28;20041;-74
2023/10/11 09:33:48;;;;;;;15.77;8.07;;;17.30;99.90;;;;;;5052105;28;20072;-74
2023/10/11 09:36:16;;;;;;;15.23;7.57;;;17.40;99.90;;;;;;5052297;28;20045;-74
2023/10/11 09:38:42;;;;;;;17.35;8.23;;;17.50;99.90;;;;;;5035007;28;20045;-75
2023/10/11 09:41:08;;;;;;;14.10;7.50;;;17.60;99.90;;;;;;5051959;28;20059;-73
2023/10/11 09:43:45;;;;;;;13.18;7.63;;;17.80;99.90;;;;;;5035052;28;20079;-73
2023/10/11 09:46:12;;;;;;;12.07;6.82;;;17.90;99.90;;;;;;5051769;28;20037;-75
2023/10/11 09:48:42;;;;;;;12.43;6.18;;;17.90;99.90;;;;;;5051386;28;20075;-74
2023/10/11 09:51:13;;;;;;;14.45;7.18;;;18.00;99.90;;;;;;5051745;28;20032;-74
2023/10/11 09:53:42;;;;;;;12.32;6.90;;;18.00;99.90;;;;;;5051737;28;20102;-74
2023/10/11 09:56:31;;;;;;;12.40;6.70;;;18.10;99.90;;;;;;5034947;28;20045;-73
2023/10/11 09:59:05;;;;;;;13.85;6.70;;;18.00;99.90;;;;;;5034599;28;20049;-73
2023/10/11 10:01:51;;;;;;;14.15;6.85;;;18.10;99.90;;;;;;5034753;28;20049;-76
2023/10/11 10:04:20;;;;;;;15.32;6.95;;;18.10;99.90;;;;;;5050731;28;20412;-74
2023/10/11 10:07:12;;;;;;;13.98;6.50;;;18.20;99.90;;;;;;5051259;28;20386;-75
2023/10/11 10:09:54;;;;;;;15.85;6.32;;;18.30;99.90;;;;;;5051054;28;20040;-75
2023/10/11 10:12:22;;;;;;;15.35;6.88;;;18.40;99.90;;;;;;5051113;28;20085;-75
2023/10/11 10:15:00;;;;;;;13.65;6.43;;;18.40;99.90;;;;;;5051146;28;20033;-74
2023/10/11 10:17:26;;;;;;;14.15;6.00;;;18.40;99.90;;;;;;5051061;28;20504;-74
2023/10/11 10:19:52;;;;;;;15.98;6.45;;;18.40;99.90;;;;;;5034302;28;20049;-75
2023/10/11 10:22:22;;;;;;;12.65;6.18;;;18.40;99.90;;;;;;5034425;28;20063;-74
2023/10/11 10:24:54;;;;;;;15.73;5.97;;;18.40;99.90;;;;;;5051178;28;20037;-75
2023/10/11 10:27:33;;;;;;;11.55;4.80;;;18.30;99.90;;;;;;5051130;28;20046;-76
2023/10/11 10:30:00;;;;;;;11.50;5.18;;;18.30;99.90;;;;;;5050591;28;20044;-75
2023/10/11 10:32:26;;;;;;;11.75;5.50;;;18.30;99.90;;;;;;5050579;28;20083;-74
2023/10/11 10:35:24;;;;;;;12.65;5.47;;;18.30;99.90;;;;;;5051024;28;20116;-73
2023/10/11 10:37:51;;;;;;;10.45;5.68;;;18.40;99.90;;;;;;5052096;28;20108;-74
2023/10/11 10:40:24;;;;;;;10.05;5.13;;;18.50;99.90;;;;;;5052351;28;20080;-74
2023/10/11 10:43:19;;;;;;;15.40;4.90;;;18.60;99.90;;;;;;5050814;28;20033;-74
2023/10/11 10:45:52;;;;;;;14.57;5.13;;;18.70;99.90;;;;;;5050049;28;20354;-73
2023/10/11 10:48:29;;;;;;;12.80;4.85;;;18.90;99.90;;;;;;5048950;28;20048;-74
2023/10/11 10:51:04;;;;;;;9.25;4.28;;;19.10;99.90;;;;;;5050286;28;20036;-74
2023/10/11 10:53:39;;;;;;;11.38;4.28;;;19.20;99.90;;;;;;5050431;28;20404;-74
2023/10/11 10:56:05;;;;;;;9.32;4.47;;;19.40;99.90;;;;;;5050662;28;20049;-75
2023/10/11 10:58:30;;;;;;;7.43;4.55;;;19.60;99.90;;;;;;5049195;28;20365;-74
2023/10/11 11:00:59;;;;;;;11.02;5.10;;;19.60;99.90;;;;;;5050460;28;20040;-75
2023/10/11 11:03:31;;;;;;;10.98;4.30;;;19.60;99.90;;;;;;5050340;28;20049;-74
2023/10/11 11:05:59;;;;;;;7.88;4.20;;;19.70;99.90;;;;;;5050225;28;20056;-75
2023/10/11 11:08:29;;;;;;;9.30;4.45;;;19.80;99.90;;;;;;5033627;28;20120;-74
2023/10/11 11:11:18;;;;;;;8.40;4.05;;;19.90;99.90;;;;;;5050502;28;20047;-74
2023/10/11 11:13:44;;;;;;;9.48;3.88;;;20.00;99.90;;;;;;5050299;28;20044;-74
2023/10/11 11:16:28;;;;;;;9.15;4.05;;;20.00;99.90;;;;;;5049979;28;20504;-73
2023/10/11 11:19:00;;;;;;;;;;;20.00;99.90;;;;;;5050163;28;20037;-74
2023/10/11 11:21:29;;;;;;;7.95;3.90;;;20.10;99.90;;;;;;5050106;28;19920;-74
2023/10/11 11:23:55;;;;;;;10.50;3.75;;;20.10;99.90;;;;;;5033259;28;20103;-74
2023/10/11 11:26:23;;;;;;;7.90;3.63;;;20.00;99.90;;;;;;5051232;28;20072;-74
2023/10/11 11:28:51;;;;;;;11.30;4.57;;;20.00;99.90;;;;;;5048614;28;20064;-74
2023/10/11 11:31:30;;;;;;;8.40;3.90;;;19.90;99.90;;;;;;5049428;28;20040;-74
2023/10/11 11:34:11;;;;;;;9.13;3.47;;;19.90;99.90;;;;;;5049908;28;20505;-73
2023/10/11 11:36:40;;;;;;;7.47;3.75;;;19.80;99.90;;;;;;5050119;28;20496;-73
2023/10/11 11:39:26;;;;;;;4.65;3.17;;;19.70;99.90;;;;;;5049493;28;20045;-72
2023/10/11 11:41:53;;;;;;;8.27;3.25;;;19.80;99.90;;;;;;5049520;28;20048;-73
2023/10/11 11:44:23;;;;;;;9.32;3.42;;;19.80;99.90;;;;;;5049747;28;20511;-74
2023/10/11 11:46:53;;;;;;;7.32;3.42;;;19.80;99.90;;;;;;5048513;28;20295;-72
2023/10/11 11:49:23;;;;;;;7.47;3.20;;;19.80;99.90;;;;;;5049139;28;20041;-74
2023/10/11 11:51:51;;;;;;;7.53;2.83;;;19.80;99.90;;;;;;5049586;28;20037;-73
2023/10/11 11:54:19;;;;;;;9.57;3.85;;;19.70;99.90;;;;;;5032957;28;20095;-74
2023/10/11 11:56:45;;;;;;;7.13;3.30;;;19.80;99.90;;;;;;5049893;28;20435;-73
2023/10/11 11:59:20;;;;;;;6.45;3.25;;;20.00;99.90;;;;;;5049638;28;20037;-74
2023/10/11 12:01:52;;;;;;;10.35;3.75;;;20.20;99.90;;;;;;5049140;28;20047;-75
2023/10/11 12:04:24;;;;;;;7.70;3.22;;;20.30;99.90;;;;;;5048869;28;20033;-74
2023/10/11 12:06:50;;;;;;;6.22;3.20;;;20.30;99.90;;;;;;5049179;28;20041;-74
2023/10/11 12:09:21;;;;;;;7.15;2.92;;;20.50;99.90;;;;;;5049318;28;20029;-74
2023/10/11 12:11:53;;;;;;;7.65;3.17;;;20.50;99.90;;;;;;5049497;28;20060;-74
2023/10/11 12:14:22;;;;;;;6.63;2.92;;;20.40;99.90;;;;;;5049528;28;20533;-74
2023/10/11 12:16:48;;;;;;;8.07;3.45;;;20.30;99.90;;;;;;5049672;28;20483;-74
2023/10/11 12:19:15;;;;;;;10.32;3.55;;;20.30;99.90;;;;;;5032759;28;20119;-76
2023/10/11 12:21:40;;;;;;;8.90;3.45;;;20.30;99.90;;;;;;5049759;28;20384;-74
2023/10/11 12:24:12;;;;;;;7.88;3.40;;;20.30;99.90;;;;;;5049239;28;20043;-74
2023/10/11 12:26:42;;;;;;;7.45;3.55;;;20.30;99.90;;;;;;5049680;28;20075;-74
2023/10/11 12:29:18;;;;;;;9.10;3.50;;;20.20;99.90;;;;;;5051333;28;20518;-74
2023/10/11 12:31:44;;;;;;;7.95;3.40;;;20.00;99.90;;;;;;5053243;28;20087;-74
2023/10/11 12:34:10;;;;;;;9.88;3.63;;;20.00;99.90;;;;;;5054249;28;20496;-74
2023/10/11 12:36:41;;;;;;;5.90;3.17;;;19.80;99.90;;;;;;5052462;28;20036;-74
2023/10/11 12:39:08;;;;;;;9.43;3.47;;;19.80;99.90;;;;;;5051797;28;20049;-74
2023/10/11 12:41:33;;;;;;;13.43;3.75;;;19.70;99.90;;;;;;5053350;28;20067;-73
2023/10/11 12:44:00;;;;;;;7.32;2.90;;;19.70;99.90;;;;;;5052843;28;20105;-73
2023/10/11 12:46:27;;;;;;;4.80;2.47;;;19.70;99.90;;;;;;5053147;28;20501;-74
2023/10/11 12:48:56;;;;;;;6.35;2.85;;;19.60;99.90;;;;;;5052531;28;20116;-75
2023/10/11 12:51:25;;;;;;;6.20;2.70;;;19.60;99.90;;;;;;5053051;28;20480;-74
2023/10/11 12:53:57;;;;;;;7.35;2.97;;;19.60;99.90;;;;;;5036347;28;20041;-75
2023/10/11 12:56:26;;;;;;;6.43;3.05;;;19.40;99.90;;;;;;5051225;28;20048;-74
2023/10/11 12:58:53;;;;;;;9.65;2.88;;;19.40;99.90;;;;;;5051144;28;20037;-74
2023/10/11 13:01:39;;;;;;;8.60;3.38;;;19.40;99.90;;;;;;5052577;28;20071;-73
2023/10/11 13:04:08;;;;;;;6.88;2.95;;;19.60;99.90;;;;;;5052436;28;20108;-76
2023/10/11 13:06:38;;;;;;;6.72;2.92;;;19.70;99.90;;;;;;5036206;28;20044;-75
2023/10/11 13:09:13;;;;;;;6.70;3.38;;;20.00;99.90;;;;;;5052099;28;20405;-74
2023/10/11 13:11:44;;;;;;;9.73;3.78;;;20.10;99.90;;;;;;5052561;28;20037;-74
2023/10/11 13:14:18;;;;;;;8.05;3.42;;;20.10;99.90;;;;;;5052362;28;20048;-73
2023/10/11 13:16:45;;;;;;;6.68;3.08;;;20.20;99.90;;;;;;5052525;28;20041;-74
2023/10/11 13:19:12;;;;;;;7.80;3.28;;;20.20;99.90;;;;;;5051838;28;20055;-74
2023/10/11 13:21:40;;;;;;;8.65;3.15;;;20.20;99.90;;;;;;5052273;28;20514;-75
2023/10/11 13:24:08;;;;;;;8.10;3.30;;;20.20;99.90;;;;;;5052302;28;20505;-74
2023/10/11 13:26:35;;;;;;;10.25;3.40;;;20.10;99.90;;;;;;5052163;28;20120;-73
2023/10/11 13:29:01;;;;;;;10.40;3.13;;;20.00;99.90;;;;;;5053171;28;20047;-75
2023/10/11 13:31:29;;;;;;;7.15;3.08;;;19.90;99.90;;;;;;5051937;28;20076;-73
2023/10/11 13:33:55;;;;;;;7.03;3.45;;;19.90;99.90;;;;;;5051833;28;20527;-75
2023/10/11 13:36:21;;;;;;;8.90;2.90;;;19.80;99.90;;;;;;5052055;28;20098;-74
2023/10/11 13:38:47;;;;;;;7.38;3.60;;;19.70;99.90;;;;;;5051669;28;20037;-75
2023/10/11 13:41:13;;;;;;;10.80;4.18;;;19.60;99.90;;;;;;5051935;28;20044;-75
2023/10/11 13:43:39;;;;;;;7.68;3.80;;;19.60;99.90;;;;;;5051876;28;20048;-74
2023/10/11 13:46:10;;;;;;;18.90;3.90;;;19.50;99.90;;;;;;5051897;28;20040;-75
2023/10/11 13:48:43;;;;;;;10.80;4.07;;;19.50;99.90;;;;;;5051400;28;20049;-74
2023/10/11 13:51:17;;;;;;;12.10;3.88;;;19.50;99.90;;;;;;5051576;28;20107;-75
2023/10/11 13:53:42;;;;;;;12.75;4.60;;;19.40;99.90;;;;;;5051772;28;20089;-75
2023/10/11 13:56:31;;;;;;;10.80;4.20;;;19.30;99.90;;;;;;5051551;28;20096;-74
2023/10/11 13:58:59;;;;;;;10.10;4.15;;;19.30;99.90;;;;;;5051183;28;20484;-74
2023/10/11 14:05:13;;;;;;;9.27;3.55;;;19.30;99.90;;;;;;5013764;28;20092;-75
2023/10/11 14:10:00;;;;;;;8.80;3.95;;;19.20;99.90;;;;;;5051429;28;20405;-74